sensor_id;sensor_type;location;lat;lon;timestamp;P1;durP1;ratioP1;P2;durP2;ratioP2
52854;SDS011;38719;51.418;7.286;2023-04-06T00:01:33;15.90;;;8.63;;
52854;SDS011;38719;51.418;7.286;2023-04-06T00:04:01;16.05;;;8.88;;
52854;SDS011;38719;51.418;7.286;2023-04-06T00:06:28;11.50;;;7.75;;
52854;SDS011;38719;51.418;7.286;2023-04-06T00:08:56;13.40;;;8.35;;
52854;SDS011;38719;51.418;7.286;2023-04-06T00:11:23;15.57;;;9.27;;
52854;SDS011;38719;51.418;7.286;2023-04-06T00:13:52;14.52;;;7.93;;
52854;SDS011;38719;51.418;7.286;2023-04-06T00:16:20;13.52;;;7.97;;
52854;SDS011;38719;51.418;7.286;2023-04-06T00:18:50;14.38;;;7.95;;
52854;SDS011;38719;51.418;7.286;2023-04-06T00:21:17;14.02;;;8.65;;
52854;SDS011;38719;51.418;7.286;2023-04-06T00:23:45;17.90;;;9.75;;
52854;SDS011;38719;51.418;7.286;2023-04-06T00:26:12;15.30;;;8.60;;
52854;SDS011;38719;51.418;7.286;2023-04-06T00:28:40;13.50;;;8.30;;
52854;SDS011;38719;51.418;7.286;2023-04-06T00:31:09;14.35;;;7.78;;
52854;SDS011;38719;51.418;7.286;2023-04-06T00:33:36;14.57;;;8.43;;
52854;SDS011;38719;51.418;7.286;2023-04-06T00:36:04;11.43;;;7.90;;
52854;SDS011;38719;51.418;7.286;2023-04-06T00:38:32;13.45;;;8.50;;
52854;SDS011;38719;51.418;7.286;2023-04-06T00:41:00;12.57;;;8.35;;
52854;SDS011;38719;51.418;7.286;2023-04-06T00:43:27;11.25;;;8.35;;
52854;SDS011;38719;51.418;7.286;2023-04-06T00:45:55;12.73;;;7.93;;
52854;SDS011;38719;51.418;7.286;2023-04-06T00:48:24;13.35;;;8.40;;
52854;SDS011;38719;51.418;7.286;2023-04-06T00:50:51;11.75;;;7.97;;
52854;SDS011;38719;51.418;7.286;2023-04-06T00:53:19;10.43;;;7.25;;
52854;SDS011;38719;51.418;7.286;2023-04-06T00:55:47;12.23;;;7.97;;
52854;SDS011;38719;51.418;7.286;2023-04-06T00:58:15;11.73;;;7.95;;
52854;SDS011;38719;51.418;7.286;2023-04-06T01:00:42;11.60;;;7.85;;
52854;SDS011;38719;51.418;7.286;2023-04-06T01:03:10;11.85;;;7.88;;
52854;SDS011;38719;51.418;7.286;2023-04-06T01:05:39;14.15;;;7.70;;
52854;SDS011;38719;51.418;7.286;2023-04-06T01:08:07;12.95;;;8.18;;
52854;SDS011;38719;51.418;7.286;2023-04-06T01:10:35;10.95;;;7.60;;
52854;SDS011;38719;51.418;7.286;2023-04-06T01:13:02;11.63;;;7.53;;
52854;SDS011;38719;51.418;7.286;2023-04-06T01:15:30;14.30;;;7.30;;
52854;SDS011;38719;51.418;7.286;2023-04-06T01:18:00;12.55;;;8.00;;
52854;SDS011;38719;51.418;7.286;2023-04-06T01:20:28;12.63;;;7.65;;
52854;SDS011;38719;51.418;7.286;2023-04-06T01:22:57;11.88;;;7.60;;
52854;SDS011;38719;51.418;7.286;2023-04-06T01:25:25;11.82;;;7.45;;
52854;SDS011;38719;51.418;7.286;2023-04-06T01:27:52;15.52;;;8.00;;
52854;SDS011;38719;51.418;7.286;2023-04-06T01:30:20;13.85;;;7.50;;
52854;SDS011;38719;51.418;7.286;2023-04-06T01:32:47;10.00;;;6.90;;
52854;SDS011;38719;51.418;7.286;2023-04-06T01:35:15;12.48;;;7.40;;
52854;SDS011;38719;51.418;7.286;2023-04-06T01:37:43;13.60;;;7.22;;
52854;SDS011;38719;51.418;7.286;2023-04-06T01:40:12;14.05;;;7.03;;
52854;SDS011;38719;51.418;7.286;2023-04-06T01:42:39;10.70;;;7.60;;
52854;SDS011;38719;51.418;7.286;2023-04-06T01:45:08;11.32;;;7.22;;
52854;SDS011;38719;51.418;7.286;2023-04-06T01:47:36;13.90;;;7.80;;
52854;SDS011;38719;51.418;7.286;2023-04-06T01:50:04;18.77;;;7.75;;
52854;SDS011;38719;51.418;7.286;2023-04-06T01:52:33;10.85;;;6.75;;
52854;SDS011;38719;51.418;7.286;2023-04-06T01:55:01;12.25;;;7.28;;
52854;SDS011;38719;51.418;7.286;2023-04-06T01:57:30;10.60;;;7.15;;
52854;SDS011;38719;51.418;7.286;2023-04-06T01:59:57;13.43;;;7.88;;
52854;SDS011;38719;51.418;7.286;2023-04-06T02:02:24;13.65;;;7.50;;
52854;SDS011;38719;51.418;7.286;2023-04-06T02:04:52;10.25;;;7.50;;
52854;SDS011;38719;51.418;7.286;2023-04-06T02:07:19;13.65;;;8.18;;
52854;SDS011;38719;51.418;7.286;2023-04-06T02:09:47;10.65;;;6.82;;
52854;SDS011;38719;51.418;7.286;2023-04-06T02:12:14;12.63;;;7.68;;
52854;SDS011;38719;51.418;7.286;2023-04-06T02:14:43;13.00;;;8.52;;
52854;SDS011;38719;51.418;7.286;2023-04-06T02:17:11;14.25;;;7.53;;
52854;SDS011;38719;51.418;7.286;2023-04-06T02:19:38;9.55;;;6.95;;
52854;SDS011;38719;51.418;7.286;2023-04-06T02:22:06;12.07;;;6.65;;
52854;SDS011;38719;51.418;7.286;2023-04-06T02:24:33;12.07;;;7.70;;
52854;SDS011;38719;51.418;7.286;2023-04-06T02:27:01;11.48;;;7.20;;
52854;SDS011;38719;51.418;7.286;2023-04-06T02:29:29;12.15;;;7.97;;
52854;SDS011;38719;51.418;7.286;2023-04-06T02:31:57;11.93;;;7.15;;
52854;SDS011;38719;51.418;7.286;2023-04-06T02:34:25;13.52;;;8.27;;
52854;SDS011;38719;51.418;7.286;2023-04-06T02:36:53;10.80;;;6.78;;
52854;SDS011;38719;51.418;7.286;2023-04-06T02:39:20;11.00;;;7.03;;
52854;SDS011;38719;51.418;7.286;2023-04-06T02:41:48;10.75;;;7.35;;
52854;SDS011;38719;51.418;7.286;2023-04-06T02:44:16;9.07;;;6.68;;
52854;SDS011;38719;51.418;7.286;2023-04-06T02:46:43;15.93;;;7.38;;
52854;SDS011;38719;51.418;7.286;2023-04-06T02:49:12;12.93;;;8.25;;
52854;SDS011;38719;51.418;7.286;2023-04-06T02:51:40;13.32;;;6.95;;
52854;SDS011;38719;51.418;7.286;2023-04-06T02:54:07;16.58;;;7.55;;
52854;SDS011;38719;51.418;7.286;2023-04-06T02:56:35;11.77;;;7.55;;
52854;SDS011;38719;51.418;7.286;2023-04-06T02:59:02;12.27;;;7.50;;
52854;SDS011;38719;51.418;7.286;2023-04-06T03:01:30;12.27;;;8.15;;
52854;SDS011;38719;51.418;7.286;2023-04-06T03:03:57;17.88;;;7.97;;
52854;SDS011;38719;51.418;7.286;2023-04-06T03:06:26;11.05;;;7.70;;
52854;SDS011;38719;51.418;7.286;2023-04-06T03:08:54;12.25;;;8.18;;
52854;SDS011;38719;51.418;7.286;2023-04-06T03:11:21;12.05;;;7.72;;
52854;SDS011;38719;51.418;7.286;2023-04-06T03:13:49;12.02;;;7.47;;
52854;SDS011;38719;51.418;7.286;2023-04-06T03:16:16;10.60;;;7.18;;
52854;SDS011;38719;51.418;7.286;2023-04-06T03:18:44;13.75;;;8.05;;
52854;SDS011;38719;51.418;7.286;2023-04-06T03:21:13;18.27;;;8.05;;
52854;SDS011;38719;51.418;7.286;2023-04-06T03:23:43;11.80;;;7.03;;
52854;SDS011;38719;51.418;7.286;2023-04-06T03:26:11;13.75;;;7.35;;
52854;SDS011;38719;51.418;7.286;2023-04-06T03:28:38;12.85;;;8.02;;
52854;SDS011;38719;51.418;7.286;2023-04-06T03:31:06;14.85;;;7.22;;
52854;SDS011;38719;51.418;7.286;2023-04-06T03:33:34;12.02;;;7.00;;
52854;SDS011;38719;51.418;7.286;2023-04-06T03:36:01;11.48;;;7.97;;
52854;SDS011;38719;51.418;7.286;2023-04-06T03:38:29;13.07;;;7.60;;
52854;SDS011;38719;51.418;7.286;2023-04-06T03:40:58;9.73;;;7.00;;
52854;SDS011;38719;51.418;7.286;2023-04-06T03:43:25;11.48;;;7.35;;
52854;SDS011;38719;51.418;7.286;2023-04-06T03:45:53;9.82;;;6.90;;
52854;SDS011;38719;51.418;7.286;2023-04-06T03:48:20;11.43;;;7.25;;
52854;SDS011;38719;51.418;7.286;2023-04-06T03:50:48;14.20;;;7.40;;
52854;SDS011;38719;51.418;7.286;2023-04-06T03:53:15;12.07;;;7.30;;
52854;SDS011;38719;51.418;7.286;2023-04-06T03:55:43;12.90;;;7.60;;
52854;SDS011;38719;51.418;7.286;2023-04-06T03:58:12;12.90;;;7.78;;
52854;SDS011;38719;51.418;7.286;2023-04-06T04:00:39;9.32;;;7.03;;
52854;SDS011;38719;51.418;7.286;2023-04-06T04:03:07;8.65;;;6.85;;
52854;SDS011;38719;51.418;7.286;2023-04-06T04:05:34;12.50;;;7.72;;
52854;SDS011;38719;51.418;7.286;2023-04-06T04:08:02;11.82;;;7.38;;
52854;SDS011;38719;51.418;7.286;2023-04-06T04:10:30;9.65;;;7.05;;
52854;SDS011;38719;51.418;7.286;2023-04-06T04:12:57;11.20;;;6.53;;
52854;SDS011;38719;51.418;7.286;2023-04-06T04:15:26;9.88;;;6.72;;
52854;SDS011;38719;51.418;7.286;2023-04-06T04:17:54;11.60;;;7.70;;
52854;SDS011;38719;51.418;7.286;2023-04-06T04:20:21;10.73;;;6.88;;
52854;SDS011;38719;51.418;7.286;2023-04-06T04:22:49;11.75;;;7.78;;
52854;SDS011;38719;51.418;7.286;2023-04-06T04:25:16;13.55;;;7.63;;
52854;SDS011;38719;51.418;7.286;2023-04-06T04:27:44;9.05;;;6.97;;
52854;SDS011;38719;51.418;7.286;2023-04-06T04:30:11;14.52;;;7.72;;
52854;SDS011;38719;51.418;7.286;2023-04-06T04:32:40;11.50;;;8.20;;
52854;SDS011;38719;51.418;7.286;2023-04-06T04:35:08;17.20;;;8.30;;
52854;SDS011;38719;51.418;7.286;2023-04-06T04:37:37;10.80;;;7.53;;
52854;SDS011;38719;51.418;7.286;2023-04-06T04:40:05;12.98;;;7.20;;
52854;SDS011;38719;51.418;7.286;2023-04-06T04:42:33;9.98;;;6.80;;
52854;SDS011;38719;51.418;7.286;2023-04-06T04:45:01;11.65;;;7.47;;
52854;SDS011;38719;51.418;7.286;2023-04-06T04:47:28;14.85;;;7.78;;
52854;SDS011;38719;51.418;7.286;2023-04-06T04:49:57;10.82;;;7.60;;
52854;SDS011;38719;51.418;7.286;2023-04-06T04:52:25;10.65;;;7.28;;
52854;SDS011;38719;51.418;7.286;2023-04-06T04:54:52;14.02;;;7.03;;
52854;SDS011;38719;51.418;7.286;2023-04-06T04:57:20;14.40;;;7.18;;
52854;SDS011;38719;51.418;7.286;2023-04-06T04:59:47;8.77;;;6.78;;
52854;SDS011;38719;51.418;7.286;2023-04-06T05:02:16;12.65;;;7.38;;
52854;SDS011;38719;51.418;7.286;2023-04-06T05:04:44;12.07;;;7.00;;
52854;SDS011;38719;51.418;7.286;2023-04-06T05:07:12;12.25;;;7.65;;
52854;SDS011;38719;51.418;7.286;2023-04-06T05:09:41;8.68;;;7.22;;
52854;SDS011;38719;51.418;7.286;2023-04-06T05:12:08;11.25;;;7.05;;
52854;SDS011;38719;51.418;7.286;2023-04-06T05:14:36;17.42;;;7.10;;
52854;SDS011;38719;51.418;7.286;2023-04-06T05:17:04;12.10;;;7.65;;
52854;SDS011;38719;51.418;7.286;2023-04-06T05:19:31;9.35;;;6.80;;
52854;SDS011;38719;51.418;7.286;2023-04-06T05:21:59;11.50;;;7.38;;
52854;SDS011;38719;51.418;7.286;2023-04-06T05:24:27;9.88;;;7.75;;
52854;SDS011;38719;51.418;7.286;2023-04-06T05:26:55;10.88;;;6.93;;
52854;SDS011;38719;51.418;7.286;2023-04-06T05:29:23;11.25;;;7.00;;
52854;SDS011;38719;51.418;7.286;2023-04-06T05:31:50;15.48;;;6.97;;
52854;SDS011;38719;51.418;7.286;2023-04-06T05:34:18;9.98;;;6.95;;
52854;SDS011;38719;51.418;7.286;2023-04-06T05:36:45;11.25;;;7.18;;
52854;SDS011;38719;51.418;7.286;2023-04-06T05:39:13;12.10;;;7.30;;
52854;SDS011;38719;51.418;7.286;2023-04-06T05:41:42;11.70;;;6.95;;
52854;SDS011;38719;51.418;7.286;2023-04-06T05:44:09;15.70;;;7.22;;
52854;SDS011;38719;51.418;7.286;2023-04-06T05:46:37;9.45;;;6.85;;
52854;SDS011;38719;51.418;7.286;2023-04-06T05:49:04;9.40;;;7.18;;
52854;SDS011;38719;51.418;7.286;2023-04-06T05:51:32;13.82;;;6.95;;
52854;SDS011;38719;51.418;7.286;2023-04-06T05:54:00;12.02;;;7.40;;
52854;SDS011;38719;51.418;7.286;2023-04-06T05:56:27;12.27;;;7.72;;
52854;SDS011;38719;51.418;7.286;2023-04-06T05:58:57;9.35;;;6.68;;
52854;SDS011;38719;51.418;7.286;2023-04-06T06:01:25;9.90;;;7.25;;
52854;SDS011;38719;51.418;7.286;2023-04-06T06:03:52;12.32;;;7.32;;
52854;SDS011;38719;51.418;7.286;2023-04-06T06:06:20;10.32;;;6.72;;
52854;SDS011;38719;51.418;7.286;2023-04-06T06:08:47;13.05;;;7.35;;
52854;SDS011;38719;51.418;7.286;2023-04-06T06:11:15;12.45;;;7.20;;
52854;SDS011;38719;51.418;7.286;2023-04-06T06:13:42;11.82;;;7.47;;
52854;SDS011;38719;51.418;7.286;2023-04-06T06:16:11;10.85;;;7.00;;
52854;SDS011;38719;51.418;7.286;2023-04-06T06:18:38;9.65;;;6.93;;
52854;SDS011;38719;51.418;7.286;2023-04-06T06:21:06;11.13;;;7.18;;
52854;SDS011;38719;51.418;7.286;2023-04-06T06:23:33;10.75;;;7.20;;
52854;SDS011;38719;51.418;7.286;2023-04-06T06:26:01;9.77;;;6.38;;
52854;SDS011;38719;51.418;7.286;2023-04-06T06:28:29;16.15;;;8.07;;
52854;SDS011;38719;51.418;7.286;2023-04-06T06:30:56;12.35;;;7.55;;
52854;SDS011;38719;51.418;7.286;2023-04-06T06:33:25;14.93;;;7.00;;
52854;SDS011;38719;51.418;7.286;2023-04-06T06:35:53;12.77;;;7.53;;
52854;SDS011;38719;51.418;7.286;2023-04-06T06:38:20;12.07;;;7.03;;
52854;SDS011;38719;51.418;7.286;2023-04-06T06:40:49;9.65;;;6.78;;
52854;SDS011;38719;51.418;7.286;2023-04-06T06:43:16;11.43;;;6.65;;
52854;SDS011;38719;51.418;7.286;2023-04-06T06:45:44;11.60;;;7.10;;
52854;SDS011;38719;51.418;7.286;2023-04-06T06:48:11;11.25;;;6.65;;
52854;SDS011;38719;51.418;7.286;2023-04-06T06:50:40;10.02;;;6.93;;
52854;SDS011;38719;51.418;7.286;2023-04-06T06:53:08;8.80;;;6.88;;
52854;SDS011;38719;51.418;7.286;2023-04-06T06:55:37;11.50;;;6.90;;
52854;SDS011;38719;51.418;7.286;2023-04-06T06:58:04;9.80;;;6.95;;
52854;SDS011;38719;51.418;7.286;2023-04-06T07:00:32;16.08;;;7.75;;
52854;SDS011;38719;51.418;7.286;2023-04-06T07:03:00;14.73;;;6.55;;
52854;SDS011;38719;51.418;7.286;2023-04-06T07:05:28;11.35;;;7.70;;
52854;SDS011;38719;51.418;7.286;2023-04-06T07:07:57;11.68;;;7.32;;
52854;SDS011;38719;51.418;7.286;2023-04-06T07:10:24;13.35;;;7.03;;
52854;SDS011;38719;51.418;7.286;2023-04-06T07:12:53;16.30;;;7.03;;
52854;SDS011;38719;51.418;7.286;2023-04-06T07:15:20;11.45;;;7.65;;
52854;SDS011;38719;51.418;7.286;2023-04-06T07:17:48;14.80;;;7.28;;
52854;SDS011;38719;51.418;7.286;2023-04-06T07:20:16;14.45;;;7.20;;
52854;SDS011;38719;51.418;7.286;2023-04-06T07:22:43;12.57;;;7.32;;
52854;SDS011;38719;51.418;7.286;2023-04-06T07:25:12;12.90;;;7.38;;
52854;SDS011;38719;51.418;7.286;2023-04-06T07:27:40;13.60;;;7.70;;
52854;SDS011;38719;51.418;7.286;2023-04-06T07:30:08;13.18;;;7.35;;
52854;SDS011;38719;51.418;7.286;2023-04-06T07:32:36;10.88;;;7.45;;
52854;SDS011;38719;51.418;7.286;2023-04-06T07:35:04;12.85;;;7.65;;
52854;SDS011;38719;51.418;7.286;2023-04-06T07:37:32;10.40;;;6.80;;
52854;SDS011;38719;51.418;7.286;2023-04-06T07:39:59;9.93;;;6.90;;
52854;SDS011;38719;51.418;7.286;2023-04-06T07:42:28;13.95;;;7.32;;
52854;SDS011;38719;51.418;7.286;2023-04-06T07:44:56;12.60;;;7.45;;
52854;SDS011;38719;51.418;7.286;2023-04-06T07:47:23;11.07;;;7.15;;
52854;SDS011;38719;51.418;7.286;2023-04-06T07:49:51;10.48;;;6.65;;
52854;SDS011;38719;51.418;7.286;2023-04-06T07:52:18;11.80;;;7.05;;
52854;SDS011;38719;51.418;7.286;2023-04-06T07:54:46;12.30;;;7.30;;
52854;SDS011;38719;51.418;7.286;2023-04-06T07:57:15;13.23;;;6.85;;
52854;SDS011;38719;51.418;7.286;2023-04-06T07:59:44;12.88;;;7.13;;
52854;SDS011;38719;51.418;7.286;2023-04-06T08:02:11;11.60;;;7.57;;
52854;SDS011;38719;51.418;7.286;2023-04-06T08:04:39;11.18;;;7.03;;
52854;SDS011;38719;51.418;7.286;2023-04-06T08:07:10;11.05;;;7.13;;
52854;SDS011;38719;51.418;7.286;2023-04-06T08:09:38;11.57;;;6.75;;
52854;SDS011;38719;51.418;7.286;2023-04-06T08:12:06;23.38;;;7.57;;
52854;SDS011;38719;51.418;7.286;2023-04-06T08:14:33;10.73;;;7.32;;
52854;SDS011;38719;51.418;7.286;2023-04-06T08:17:02;13.77;;;7.65;;
52854;SDS011;38719;51.418;7.286;2023-04-06T08:19:31;12.68;;;7.00;;
52854;SDS011;38719;51.418;7.286;2023-04-06T08:21:59;13.75;;;7.38;;
52854;SDS011;38719;51.418;7.286;2023-04-06T08:24:26;11.07;;;7.20;;
52854;SDS011;38719;51.418;7.286;2023-04-06T08:26:54;11.55;;;6.82;;
52854;SDS011;38719;51.418;7.286;2023-04-06T08:29:21;11.80;;;7.20;;
52854;SDS011;38719;51.418;7.286;2023-04-06T08:31:49;11.77;;;7.47;;
52854;SDS011;38719;51.418;7.286;2023-04-06T08:34:17;13.05;;;7.53;;
52854;SDS011;38719;51.418;7.286;2023-04-06T08:36:45;13.23;;;8.18;;
52854;SDS011;38719;51.418;7.286;2023-04-06T08:39:13;14.15;;;7.65;;
52854;SDS011;38719;51.418;7.286;2023-04-06T08:41:41;17.45;;;8.20;;
52854;SDS011;38719;51.418;7.286;2023-04-06T08:44:08;14.63;;;8.38;;
52854;SDS011;38719;51.418;7.286;2023-04-06T08:46:36;17.08;;;8.50;;
52854;SDS011;38719;51.418;7.286;2023-04-06T08:49:04;10.05;;;7.25;;
52854;SDS011;38719;51.418;7.286;2023-04-06T08:51:34;14.82;;;7.68;;
52854;SDS011;38719;51.418;7.286;2023-04-06T08:54:02;14.70;;;8.13;;
52854;SDS011;38719;51.418;7.286;2023-04-06T08:56:29;15.35;;;8.95;;
52854;SDS011;38719;51.418;7.286;2023-04-06T08:58:57;13.35;;;8.75;;
52854;SDS011;38719;51.418;7.286;2023-04-06T09:01:26;17.70;;;8.57;;
52854;SDS011;38719;51.418;7.286;2023-04-06T09:03:55;14.88;;;8.85;;
52854;SDS011;38719;51.418;7.286;2023-04-06T09:06:24;16.45;;;8.18;;
52854;SDS011;38719;51.418;7.286;2023-04-06T09:08:54;14.15;;;8.63;;
52854;SDS011;38719;51.418;7.286;2023-04-06T09:11:22;16.00;;;8.95;;
52854;SDS011;38719;51.418;7.286;2023-04-06T09:13:51;19.10;;;9.57;;
52854;SDS011;38719;51.418;7.286;2023-04-06T09:16:20;17.05;;;8.93;;
52854;SDS011;38719;51.418;7.286;2023-04-06T09:18:49;18.45;;;9.70;;
52854;SDS011;38719;51.418;7.286;2023-04-06T09:21:17;16.35;;;10.15;;
52854;SDS011;38719;51.418;7.286;2023-04-06T09:23:58;19.02;;;9.65;;
52854;SDS011;38719;51.418;7.286;2023-04-06T09:26:27;15.13;;;9.02;;
52854;SDS011;38719;51.418;7.286;2023-04-06T09:28:55;17.85;;;9.38;;
52854;SDS011;38719;51.418;7.286;2023-04-06T09:31:27;21.80;;;9.43;;
52854;SDS011;38719;51.418;7.286;2023-04-06T09:33:56;16.23;;;10.07;;
52854;SDS011;38719;51.418;7.286;2023-04-06T09:36:30;13.93;;;9.38;;
52854;SDS011;38719;51.418;7.286;2023-04-06T09:38:59;18.60;;;10.15;;
52854;SDS011;38719;51.418;7.286;2023-04-06T09:41:29;18.38;;;10.20;;
52854;SDS011;38719;51.418;7.286;2023-04-06T09:44:01;18.33;;;9.52;;
52854;SDS011;38719;51.418;7.286;2023-04-06T09:46:31;19.13;;;9.40;;
52854;SDS011;38719;51.418;7.286;2023-04-06T09:49:12;16.70;;;10.00;;
52854;SDS011;38719;51.418;7.286;2023-04-06T09:51:40;18.42;;;9.73;;
52854;SDS011;38719;51.418;7.286;2023-04-06T09:54:15;17.27;;;9.80;;
52854;SDS011;38719;51.418;7.286;2023-04-06T09:56:45;17.30;;;9.18;;
52854;SDS011;38719;51.418;7.286;2023-04-06T09:59:14;18.27;;;9.50;;
52854;SDS011;38719;51.418;7.286;2023-04-06T10:01:48;17.98;;;9.77;;
52854;SDS011;38719;51.418;7.286;2023-04-06T10:04:21;20.33;;;10.80;;
52854;SDS011;38719;51.418;7.286;2023-04-06T10:06:58;19.67;;;10.35;;
52854;SDS011;38719;51.418;7.286;2023-04-06T10:09:28;20.25;;;11.18;;
52854;SDS011;38719;51.418;7.286;2023-04-06T10:12:02;22.67;;;10.43;;
52854;SDS011;38719;51.418;7.286;2023-04-06T10:14:31;18.27;;;10.55;;
52854;SDS011;38719;51.418;7.286;2023-04-06T10:17:01;21.00;;;11.48;;
52854;SDS011;38719;51.418;7.286;2023-04-06T10:19:32;18.20;;;10.10;;
52854;SDS011;38719;51.418;7.286;2023-04-06T10:22:05;20.90;;;11.35;;
52854;SDS011;38719;51.418;7.286;2023-04-06T10:24:37;18.95;;;10.85;;
52854;SDS011;38719;51.418;7.286;2023-04-06T10:27:06;22.15;;;11.88;;
52854;SDS011;38719;51.418;7.286;2023-04-06T10:29:44;20.55;;;11.73;;
52854;SDS011;38719;51.418;7.286;2023-04-06T10:32:12;18.35;;;11.38;;
52854;SDS011;38719;51.418;7.286;2023-04-06T10:34:40;19.92;;;11.65;;
52854;SDS011;38719;51.418;7.286;2023-04-06T10:37:11;22.63;;;12.65;;
52854;SDS011;38719;51.418;7.286;2023-04-06T10:39:52;20.98;;;11.48;;
52854;SDS011;38719;51.418;7.286;2023-04-06T10:42:35;20.15;;;11.50;;
52854;SDS011;38719;51.418;7.286;2023-04-06T10:45:07;23.25;;;12.15;;
52854;SDS011;38719;51.418;7.286;2023-04-06T10:47:45;20.23;;;11.98;;
52854;SDS011;38719;51.418;7.286;2023-04-06T10:50:14;22.73;;;13.15;;
52854;SDS011;38719;51.418;7.286;2023-04-06T10:52:43;23.48;;;12.32;;
52854;SDS011;38719;51.418;7.286;2023-04-06T10:55:14;22.40;;;11.93;;
52854;SDS011;38719;51.418;7.286;2023-04-06T10:57:42;22.40;;;11.45;;
52854;SDS011;38719;51.418;7.286;2023-04-06T11:00:13;24.33;;;12.23;;
52854;SDS011;38719;51.418;7.286;2023-04-06T11:02:42;22.13;;;12.52;;
52854;SDS011;38719;51.418;7.286;2023-04-06T11:05:10;21.67;;;12.63;;
52854;SDS011;38719;51.418;7.286;2023-04-06T11:07:39;21.92;;;12.93;;
52854;SDS011;38719;51.418;7.286;2023-04-06T11:10:07;24.55;;;13.13;;
52854;SDS011;38719;51.418;7.286;2023-04-06T11:12:51;22.60;;;13.82;;
52854;SDS011;38719;51.418;7.286;2023-04-06T11:15:20;24.67;;;13.90;;
52854;SDS011;38719;51.418;7.286;2023-04-06T11:17:48;22.40;;;13.65;;
52854;SDS011;38719;51.418;7.286;2023-04-06T11:20:16;24.20;;;13.52;;
52854;SDS011;38719;51.418;7.286;2023-04-06T11:22:49;24.38;;;14.48;;
52854;SDS011;38719;51.418;7.286;2023-04-06T11:25:17;25.75;;;13.40;;
52854;SDS011;38719;51.418;7.286;2023-04-06T11:27:46;24.50;;;14.15;;
52854;SDS011;38719;51.418;7.286;2023-04-06T11:30:14;26.05;;;14.10;;
52854;SDS011;38719;51.418;7.286;2023-04-06T11:32:42;25.67;;;15.13;;
52854;SDS011;38719;51.418;7.286;2023-04-06T11:35:20;24.48;;;15.23;;
52854;SDS011;38719;51.418;7.286;2023-04-06T11:37:48;25.90;;;14.07;;
52854;SDS011;38719;51.418;7.286;2023-04-06T11:40:20;25.27;;;13.48;;
52854;SDS011;38719;51.418;7.286;2023-04-06T11:42:53;38.08;;;16.02;;
52854;SDS011;38719;51.418;7.286;2023-04-06T11:45:21;33.90;;;15.45;;
52854;SDS011;38719;51.418;7.286;2023-04-06T11:47:55;104.47;;;19.48;;
52854;SDS011;38719;51.418;7.286;2023-04-06T11:50:23;42.27;;;13.90;;
52854;SDS011;38719;51.418;7.286;2023-04-06T11:52:57;25.42;;;15.20;;
52854;SDS011;38719;51.418;7.286;2023-04-06T11:55:26;27.05;;;13.70;;
52854;SDS011;38719;51.418;7.286;2023-04-06T11:57:57;27.02;;;12.75;;
52854;SDS011;38719;51.418;7.286;2023-04-06T12:00:26;78.65;;;13.63;;
52854;SDS011;38719;51.418;7.286;2023-04-06T12:02:54;26.20;;;12.60;;
52854;SDS011;38719;51.418;7.286;2023-04-06T12:05:22;21.67;;;12.35;;
52854;SDS011;38719;51.418;7.286;2023-04-06T12:07:50;25.27;;;11.30;;
52854;SDS011;38719;51.418;7.286;2023-04-06T12:10:17;20.50;;;11.50;;
52854;SDS011;38719;51.418;7.286;2023-04-06T12:12:45;20.45;;;10.98;;
52854;SDS011;38719;51.418;7.286;2023-04-06T12:15:13;21.90;;;10.75;;
52854;SDS011;38719;51.418;7.286;2023-04-06T12:17:41;23.42;;;12.23;;
52854;SDS011;38719;51.418;7.286;2023-04-06T12:20:09;20.05;;;10.50;;
52854;SDS011;38719;51.418;7.286;2023-04-06T12:22:51;20.27;;;11.50;;
52854;SDS011;38719;51.418;7.286;2023-04-06T12:25:19;19.48;;;10.88;;
52854;SDS011;38719;51.418;7.286;2023-04-06T12:27:47;22.17;;;12.35;;
52854;SDS011;38719;51.418;7.286;2023-04-06T12:30:16;21.00;;;11.40;;
52854;SDS011;38719;51.418;7.286;2023-04-06T12:32:43;17.75;;;9.93;;
52854;SDS011;38719;51.418;7.286;2023-04-06T12:35:14;18.75;;;10.82;;
52854;SDS011;38719;51.418;7.286;2023-04-06T12:37:42;20.65;;;10.93;;
52854;SDS011;38719;51.418;7.286;2023-04-06T12:40:10;18.00;;;10.80;;
52854;SDS011;38719;51.418;7.286;2023-04-06T12:42:38;18.23;;;10.63;;
52854;SDS011;38719;51.418;7.286;2023-04-06T12:45:07;23.55;;;10.88;;
52854;SDS011;38719;51.418;7.286;2023-04-06T12:47:36;18.75;;;10.60;;
52854;SDS011;38719;51.418;7.286;2023-04-06T12:50:05;19.73;;;10.75;;
52854;SDS011;38719;51.418;7.286;2023-04-06T12:52:33;22.83;;;11.30;;
52854;SDS011;38719;51.418;7.286;2023-04-06T12:55:01;17.75;;;10.65;;
52854;SDS011;38719;51.418;7.286;2023-04-06T12:57:29;18.05;;;10.18;;
52854;SDS011;38719;51.418;7.286;2023-04-06T12:59:56;18.30;;;10.43;;
52854;SDS011;38719;51.418;7.286;2023-04-06T13:02:24;15.80;;;10.00;;
52854;SDS011;38719;51.418;7.286;2023-04-06T13:04:54;21.50;;;11.32;;
52854;SDS011;38719;51.418;7.286;2023-04-06T13:07:22;22.83;;;11.35;;
52854;SDS011;38719;51.418;7.286;2023-04-06T13:09:49;21.08;;;12.00;;
52854;SDS011;38719;51.418;7.286;2023-04-06T13:12:18;21.73;;;11.95;;
52854;SDS011;38719;51.418;7.286;2023-04-06T13:14:45;22.50;;;11.70;;
52854;SDS011;38719;51.418;7.286;2023-04-06T13:17:17;20.17;;;11.32;;
52854;SDS011;38719;51.418;7.286;2023-04-06T13:19:44;19.33;;;10.70;;
52854;SDS011;38719;51.418;7.286;2023-04-06T13:22:13;22.17;;;11.80;;
52854;SDS011;38719;51.418;7.286;2023-04-06T13:24:41;20.23;;;11.27;;
52854;SDS011;38719;51.418;7.286;2023-04-06T13:27:09;14.35;;;8.98;;
52854;SDS011;38719;51.418;7.286;2023-04-06T13:29:37;17.27;;;9.18;;
52854;SDS011;38719;51.418;7.286;2023-04-06T13:32:05;20.35;;;10.70;;
52854;SDS011;38719;51.418;7.286;2023-04-06T13:34:33;16.77;;;9.82;;
52854;SDS011;38719;51.418;7.286;2023-04-06T13:37:01;23.10;;;12.07;;
52854;SDS011;38719;51.418;7.286;2023-04-06T13:39:30;27.17;;;11.65;;
52854;SDS011;38719;51.418;7.286;2023-04-06T13:41:58;19.63;;;10.95;;
52854;SDS011;38719;51.418;7.286;2023-04-06T13:44:28;23.10;;;11.25;;
52854;SDS011;38719;51.418;7.286;2023-04-06T13:46:56;21.08;;;11.07;;
52854;SDS011;38719;51.418;7.286;2023-04-06T13:49:24;18.45;;;10.98;;
52854;SDS011;38719;51.418;7.286;2023-04-06T13:51:52;20.60;;;10.85;;
52854;SDS011;38719;51.418;7.286;2023-04-06T13:54:20;18.02;;;10.98;;
52854;SDS011;38719;51.418;7.286;2023-04-06T13:56:49;26.88;;;11.63;;
52854;SDS011;38719;51.418;7.286;2023-04-06T13:59:16;17.60;;;10.63;;
52854;SDS011;38719;51.418;7.286;2023-04-06T14:01:44;22.42;;;11.93;;
52854;SDS011;38719;51.418;7.286;2023-04-06T14:04:11;19.92;;;11.07;;
52854;SDS011;38719;51.418;7.286;2023-04-06T14:06:39;19.42;;;10.40;;
52854;SDS011;38719;51.418;7.286;2023-04-06T14:09:06;23.23;;;11.70;;
52854;SDS011;38719;51.418;7.286;2023-04-06T14:11:34;27.25;;;10.88;;
52854;SDS011;38719;51.418;7.286;2023-04-06T14:14:04;20.95;;;10.38;;
52854;SDS011;38719;51.418;7.286;2023-04-06T14:16:31;14.90;;;8.60;;
52854;SDS011;38719;51.418;7.286;2023-04-06T14:18:59;14.75;;;8.48;;
52854;SDS011;38719;51.418;7.286;2023-04-06T14:21:27;11.65;;;8.23;;
52854;SDS011;38719;51.418;7.286;2023-04-06T14:23:54;15.25;;;8.85;;
52854;SDS011;38719;51.418;7.286;2023-04-06T14:26:25;14.30;;;8.90;;
52854;SDS011;38719;51.418;7.286;2023-04-06T14:28:52;15.65;;;9.75;;
52854;SDS011;38719;51.418;7.286;2023-04-06T14:31:21;14.90;;;9.65;;
52854;SDS011;38719;51.418;7.286;2023-04-06T14:33:49;16.95;;;9.77;;
52854;SDS011;38719;51.418;7.286;2023-04-06T14:36:16;15.73;;;9.45;;
52854;SDS011;38719;51.418;7.286;2023-04-06T14:38:44;15.63;;;9.73;;